sensor_id;sensor_type;location;lat;lon;timestamp;pressure;altitude;pressure_sealevel;temperature;humidity
49393;BME280;35268;42.642;23.308;2023-07-16T00:00:31;94171.84;;;24.18;65.40
49393;BME280;35268;42.642;23.308;2023-07-16T00:02:56;94179.66;;;24.12;66.05
49393;BME280;35268;42.642;23.308;2023-07-16T00:05:22;94180.03;;;24.07;66.30
49393;BME280;35268;42.642;23.308;2023-07-16T00:07:48;94179.28;;;23.96;66.86
49393;BME280;35268;42.642;23.308;2023-07-16T00:10:13;94182.78;;;23.93;67.33
49393;BME280;35268;42.642;23.308;2023-07-16T00:12:39;94182.78;;;23.93;67.83
49393;BME280;35268;42.642;23.308;2023-07-16T00:15:05;94179.28;;;23.89;67.88
49393;BME280;35268;42.642;23.308;2023-07-16T00:17:32;94179.28;;;23.85;67.74
49393;BME280;35268;42.642;23.308;2023-07-16T00:19:58;94177.34;;;23.78;67.67
49393;BME280;35268;42.642;23.308;2023-07-16T00:22:23;94179.66;;;23.69;68.60
49393;BME280;35268;42.642;23.308;2023-07-16T00:24:49;94173.84;;;23.67;68.55
49393;BME280;35268;42.642;23.308;2023-07-16T00:27:15;94175.38;;;23.72;68.68
49393;BME280;35268;42.642;23.308;2023-07-16T00:29:40;94180.81;;;23.64;68.91
49393;BME280;35268;42.642;23.308;2023-07-16T00:32:06;94182.38;;;23.66;69.28
49393;BME280;35268;42.642;23.308;2023-07-16T00:34:31;94176.56;;;23.63;69.27
49393;BME280;35268;42.642;23.308;2023-07-16T00:36:57;94173.84;;;23.67;69.26
49393;BME280;35268;42.642;23.308;2023-07-16T00:39:29;94180.44;;;23.66;69.77
49393;BME280;35268;42.642;23.308;2023-07-16T00:41:55;94177.72;;;23.66;69.86
49393;BME280;35268;42.642;23.308;2023-07-16T00:44:22;94171.88;;;23.64;70.25
49393;BME280;35268;42.642;23.308;2023-07-16T00:46:48;94169.94;;;23.61;70.07
49393;BME280;35268;42.642;23.308;2023-07-16T00:49:13;94172.66;;;23.61;70.45
49393;BME280;35268;42.642;23.308;2023-07-16T00:51:39;94173.03;;;23.56;71.01
49393;BME280;35268;42.642;23.308;2023-07-16T00:54:05;94179.63;;;23.55;71.04
49393;BME280;35268;42.642;23.308;2023-07-16T00:56:31;94168.38;;;23.53;71.21
49393;BME280;35268;42.642;23.308;2023-07-16T00:58:57;94173.81;;;23.53;70.97
49393;BME280;35268;42.642;23.308;2023-07-16T01:01:23;94169.16;;;23.50;71.10
49393;BME280;35268;42.642;23.308;2023-07-16T01:03:48;94168.38;;;23.49;70.86
49393;BME280;35268;42.642;23.308;2023-07-16T01:06:22;94175.38;;;23.43;71.24
49393;BME280;35268;42.642;23.308;2023-07-16T01:11:28;94182.34;;;23.40;71.38
49393;BME280;35268;42.642;23.308;2023-07-16T01:13:55;94180.81;;;23.39;71.49
49393;BME280;35268;42.642;23.308;2023-07-16T01:16:24;94172.63;;;23.36;71.71
49393;BME280;35268;42.642;23.308;2023-07-16T01:18:50;94171.06;;;23.28;71.43
49393;BME280;35268;42.642;23.308;2023-07-16T01:21:18;94176.09;;;23.22;71.73
49393;BME280;35268;42.642;23.308;2023-07-16T01:29:09;94184.63;;;23.10;71.69
49393;BME280;35268;42.642;23.308;2023-07-16T01:32:03;94172.94;;;22.98;72.60
49393;BME280;35268;42.642;23.308;2023-07-16T01:34:32;94174.47;;;22.96;72.91
49393;BME280;35268;42.642;23.308;2023-07-16T01:37:00;94177.59;;;22.94;73.36
49393;BME280;35268;42.642;23.308;2023-07-16T01:39:26;94171.38;;;22.90;73.38
49393;BME280;35268;42.642;23.308;2023-07-16T01:41:52;94166.69;;;22.87;73.79
49393;BME280;35268;42.642;23.308;2023-07-16T01:44:17;94177.94;;;22.86;73.80
49393;BME280;35268;42.642;23.308;2023-07-16T01:46:43;94178.34;;;22.84;73.74
49393;BME280;35268;42.642;23.308;2023-07-16T01:49:08;94183.38;;;22.82;73.37
49393;BME280;35268;42.642;23.308;2023-07-16T01:51:34;94177.53;;;22.80;72.79
49393;BME280;35268;42.642;23.308;2023-07-16T01:53:59;94188.34;;;22.69;73.67
49393;BME280;35268;42.642;23.308;2023-07-16T01:56:25;94182.94;;;22.66;73.92
49393;BME280;35268;42.642;23.308;2023-07-16T01:58:50;94181.34;;;22.64;73.96
49393;BME280;35268;42.642;23.308;2023-07-16T02:01:15;94184.47;;;22.59;74.07
49393;BME280;35268;42.642;23.308;2023-07-16T02:03:41;94188.31;;;22.51;74.33
49393;BME280;35268;42.642;23.308;2023-07-16T02:06:06;94189.09;;;22.55;74.26
49393;BME280;35268;42.642;23.308;2023-07-16T02:08:32;94180.91;;;22.52;74.55
49393;BME280;35268;42.642;23.308;2023-07-16T02:10:57;94177.03;;;22.49;75.10
49393;BME280;35268;42.642;23.308;2023-07-16T02:13:23;94177.78;;;22.46;75.02
49393;BME280;35268;42.642;23.308;2023-07-16T02:15:48;94178.16;;;22.41;75.72
49393;BME280;35268;42.642;23.308;2023-07-16T02:18:14;94173.50;;;22.41;75.63
49393;BME280;35268;42.642;23.308;2023-07-16T02:20:39;94178.19;;;22.48;75.87
49393;BME280;35268;42.642;23.308;2023-07-16T02:23:05;94179.72;;;22.46;75.64
49393;BME280;35268;42.642;23.308;2023-07-16T02:25:32;94183.56;;;22.37;75.98
49393;BME280;35268;42.642;23.308;2023-07-16T02:27:57;94180.06;;;22.33;76.31
49393;BME280;35268;42.642;23.308;2023-07-16T02:30:23;94177.31;;;22.30;76.61
49393;BME280;35268;42.642;23.308;2023-07-16T02:32:48;94182.38;;;22.31;76.68
49393;BME280;35268;42.642;23.308;2023-07-16T02:35:15;94185.88;;;22.35;76.64
49393;BME280;35268;42.642;23.308;2023-07-16T02:37:40;94194.81;;;22.36;76.56
49393;BME280;35268;42.642;23.308;2023-07-16T02:40:06;94193.66;;;22.37;76.12
49393;BME280;35268;42.642;23.308;2023-07-16T02:42:32;94194.06;;;22.39;75.92
49393;BME280;35268;42.642;23.308;2023-07-16T02:44:57;94188.63;;;22.39;76.22
49393;BME280;35268;42.642;23.308;2023-07-16T02:47:23;94199.06;;;22.33;76.38
49393;BME280;35268;42.642;23.308;2023-07-16T02:49:51;94201.28;;;22.20;77.07
49393;BME280;35268;42.642;23.308;2023-07-16T02:52:17;94191.97;;;22.21;76.76
49393;BME280;35268;42.642;23.308;2023-07-16T02:54:42;94202.03;;;22.17;77.13
49393;BME280;35268;42.642;23.308;2023-07-16T02:57:08;94187.69;;;22.17;77.23
49393;BME280;35268;42.642;23.308;2023-07-16T02:59:33;94188.47;;;22.17;77.33
49393;BME280;35268;42.642;23.308;2023-07-16T03:01:58;94199.31;;;22.17;77.58
49393;BME280;35268;42.642;23.308;2023-07-16T03:04:24;94188.81;;;22.12;77.70
49393;BME280;35268;42.642;23.308;2023-07-16T03:06:50;94189.97;;;22.11;77.79
49393;BME280;35268;42.642;23.308;2023-07-16T03:09:15;94197.31;;;22.07;78.14
49393;BME280;35268;42.642;23.308;2023-07-16T03:11:41;94194.22;;;22.05;78.13
49393;BME280;35268;42.642;23.308;2023-07-16T03:14:06;94198.84;;;22.01;78.04
49393;BME280;35268;42.642;23.308;2023-07-16T03:16:32;94198.81;;;21.97;78.26
49393;BME280;35268;42.642;23.308;2023-07-16T03:18:57;94204.56;;;21.89;78.46
49393;BME280;35268;42.642;23.308;2023-07-16T03:21:22;94208.03;;;21.86;78.92
49393;BME280;35268;42.642;23.308;2023-07-16T03:23:48;94201.81;;;21.85;78.56
49393;BME280;35268;42.642;23.308;2023-07-16T03:26:13;94211.13;;;21.84;78.74
49393;BME280;35268;42.642;23.308;2023-07-16T03:28:39;94211.91;;;21.84;78.97
49393;BME280;35268;42.642;23.308;2023-07-16T03:31:04;94216.97;;;21.90;79.10
49393;BME280;35268;42.642;23.308;2023-07-16T03:33:30;94217.38;;;21.92;79.26
49393;BME280;35268;42.642;23.308;2023-07-16T03:35:55;94216.66;;;22.02;78.84
49393;BME280;35268;42.642;23.308;2023-07-16T03:38:21;94212.03;;;22.06;78.87
49393;BME280;35268;42.642;23.308;2023-07-16T03:40:48;94208.97;;;22.11;78.52
49393;BME280;35268;42.642;23.308;2023-07-16T03:43:15;94212.84;;;22.07;78.74
49393;BME280;35268;42.642;23.308;2023-07-16T03:45:41;94228.31;;;22.06;78.89
49393;BME280;35268;42.642;23.308;2023-07-16T03:48:06;94225.25;;;22.08;78.78
49393;BME280;35268;42.642;23.308;2023-07-16T03:50:32;94222.56;;;22.11;78.98
49393;BME280;35268;42.642;23.308;2023-07-16T03:52:58;94213.31;;;22.19;78.82
49393;BME280;35268;42.642;23.308;2023-07-16T03:55:24;94214.44;;;22.18;78.66
49393;BME280;35268;42.642;23.308;2023-07-16T03:57:49;94217.16;;;22.18;78.73
49393;BME280;35268;42.642;23.308;2023-07-16T04:00:15;94209.88;;;22.26;78.34
49393;BME280;35268;42.642;23.308;2023-07-16T04:02:40;94216.50;;;22.32;77.82
49393;BME280;35268;42.642;23.308;2023-07-16T04:05:06;94225.47;;;22.40;77.51
49393;BME280;35268;42.642;23.308;2023-07-16T04:07:32;94220.81;;;22.40;77.42
49393;BME280;35268;42.642;23.308;2023-07-16T04:09:57;94222.81;;;22.47;77.15
49393;BME280;35268;42.642;23.308;2023-07-16T04:12:23;94227.53;;;22.57;77.07
49393;BME280;35268;42.642;23.308;2023-07-16T04:14:48;94228.31;;;22.65;75.46
49393;BME280;35268;42.642;23.308;2023-07-16T04:17:13;94228.72;;;22.71;74.60
49393;BME280;35268;42.642;23.308;2023-07-16T04:19:39;94229.94;;;22.77;74.53
49393;BME280;35268;42.642;23.308;2023-07-16T04:22:05;94234.22;;;22.85;74.86
49393;BME280;35268;42.642;23.308;2023-07-16T04:24:30;94231.88;;;22.83;74.81
49393;BME280;35268;42.642;23.308;2023-07-16T04:26:58;94230.75;;;22.88;74.36
49393;BME280;35268;42.642;23.308;2023-07-16T04:29:23;94235.03;;;22.93;74.45
49393;BME280;35268;42.642;23.308;2023-07-16T04:31:49;94239.31;;;22.97;73.83
49393;BME280;35268;42.642;23.308;2023-07-16T04:34:14;94238.16;;;22.95;73.59
49393;BME280;35268;42.642;23.308;2023-07-16T04:36:41;94243.19;;;22.93;73.70
49393;BME280;35268;42.642;23.308;2023-07-16T04:39:07;94244.44;;;23.02;73.35
49393;BME280;35268;42.642;23.308;2023-07-16T04:41:32;94234.75;;;23.09;73.20
49393;BME280;35268;42.642;23.308;2023-07-16T04:43:57;94235.13;;;23.11;72.91
49393;BME280;35268;42.642;23.308;2023-07-16T04:46:23;94235.13;;;23.11;72.55
49393;BME280;35268;42.642;23.308;2023-07-16T04:48:48;94243.31;;;23.14;72.65
49393;BME280;35268;42.642;23.308;2023-07-16T04:51:14;94251.84;;;23.20;72.64
49393;BME280;35268;42.642;23.308;2023-07-16T04:53:39;94241.38;;;23.22;72.21
49393;BME280;35268;42.642;23.308;2023-07-16T04:56:13;94248.38;;;23.23;72.16
49393;BME280;35268;42.642;23.308;2023-07-16T04:58:39;94251.47;;;23.21;71.60
49393;BME280;35268;42.642;23.308;2023-07-16T05:01:04;94248.75;;;23.21;72.14
49393;BME280;35268;42.642;23.308;2023-07-16T05:03:30;94251.06;;;23.19;72.65
49393;BME280;35268;42.642;23.308;2023-07-16T05:05:55;94255.38;;;23.28;72.67
49393;BME280;35268;42.642;23.308;2023-07-16T05:08:20;94256.94;;;23.32;72.89
49393;BME280;35268;42.642;23.308;2023-07-16T05:10:46;94255.78;;;23.33;72.02
49393;BME280;35268;42.642;23.308;2023-07-16T05:13:12;94258.47;;;23.30;71.59
49393;BME280;35268;42.642;23.308;2023-07-16T05:15:37;94255.41;;;23.38;71.56
49393;BME280;35268;42.642;23.308;2023-07-16T05:18:03;94247.25;;;23.42;71.04
49393;BME280;35268;42.642;23.308;2023-07-16T05:20:29;94249.22;;;23.52;70.52
49393;BME280;35268;42.642;23.308;2023-07-16T05:22:54;94253.88;;;23.62;70.46
49393;BME280;35268;42.642;23.308;2023-07-16T05:25:19;94243.03;;;23.70;70.21
49393;BME280;35268;42.642;23.308;2023-07-16T05:27:45;94250.41;;;23.73;69.44
49393;BME280;35268;42.642;23.308;2023-07-16T05:30:11;94255.84;;;23.76;69.46
49393;BME280;35268;42.642;23.308;2023-07-16T05:32:36;94252.38;;;23.87;69.36
49393;BME280;35268;42.642;23.308;2023-07-16T05:35:01;94252.38;;;23.97;68.47
49393;BME280;35268;42.642;23.308;2023-07-16T05:37:27;94255.50;;;24.07;68.08
49393;BME280;35268;42.642;23.308;2023-07-16T05:39:53;94259.38;;;24.20;67.21
49393;BME280;35268;42.642;23.308;2023-07-16T05:42:18;94253.94;;;24.27;65.37
49393;BME280;35268;42.642;23.308;2023-07-16T05:44:43;94259.38;;;24.34;65.06
49393;BME280;35268;42.642;23.308;2023-07-16T05:47:09;94264.03;;;24.41;65.19
49393;BME280;35268;42.642;23.308;2023-07-16T05:49:35;94265.56;;;24.42;65.11
49393;BME280;35268;42.642;23.308;2023-07-16T05:52:01;94281.56;;;24.51;64.61
49393;BME280;35268;42.642;23.308;2023-07-16T05:54:26;94270.25;;;24.52;64.53
49393;BME280;35268;42.642;23.308;2023-07-16T05:56:51;94275.72;;;24.56;64.93
49393;BME280;35268;42.642;23.308;2023-07-16T05:59:17;94278.78;;;24.72;64.95
49393;BME280;35268;42.642;23.308;2023-07-16T06:01:43;94273.28;;;24.87;64.59
49393;BME280;35268;42.642;23.308;2023-07-16T06:04:08;94270.16;;;24.95;63.46
49393;BME280;35268;42.642;23.308;2023-07-16T06:06:33;94270.88;;;25.07;62.96
49393;BME280;35268;42.642;23.308;2023-07-16T06:08:59;94272.41;;;25.22;62.88
49393;BME280;35268;42.642;23.308;2023-07-16T06:11:24;94278.59;;;25.33;63.01
49393;BME280;35268;42.642;23.308;2023-07-16T06:13:52;94273.06;;;25.44;62.65
49393;BME280;35268;42.642;23.308;2023-07-16T06:16:17;94281.59;;;25.53;62.55
49393;BME280;35268;42.642;23.308;2023-07-16T06:18:43;94281.97;;;25.62;62.48
49393;BME280;35268;42.642;23.308;2023-07-16T06:21:08;94281.53;;;25.68;61.70
49393;BME280;35268;42.642;23.308;2023-07-16T06:23:34;94274.06;;;25.75;60.47
49393;BME280;35268;42.642;23.308;2023-07-16T06:25:59;94282.56;;;25.85;61.16
49393;BME280;35268;42.642;23.308;2023-07-16T06:28:25;94280.97;;;25.94;61.18
49393;BME280;35268;42.642;23.308;2023-07-16T06:30:50;94273.53;;;25.98;60.10
49393;BME280;35268;42.642;23.308;2023-07-16T06:33:19;94268.47;;;25.97;59.75
49393;BME280;35268;42.642;23.308;2023-07-16T06:35:45;94281.34;;;26.00;59.63
49393;BME280;35268;42.642;23.308;2023-07-16T06:38:11;94268.81;;;26.06;59.48
49393;BME280;35268;42.642;23.308;2023-07-16T06:40:37;94275.00;;;26.14;59.87
49393;BME280;35268;42.642;23.308;2023-07-16T06:43:02;94272.16;;;26.25;59.64
49393;BME280;35268;42.642;23.308;2023-07-16T06:45:28;94272.59;;;26.19;58.35
49393;BME280;35268;42.642;23.308;2023-07-16T06:47:53;94269.47;;;26.17;58.99
49393;BME280;35268;42.642;23.308;2023-07-16T06:50:18;94271.19;;;26.00;59.40
49393;BME280;35268;42.642;23.308;2023-07-16T06:52:44;94268.09;;;25.95;59.38
49393;BME280;35268;42.642;23.308;2023-07-16T06:55:09;94272.38;;;25.96;59.41
49393;BME280;35268;42.642;23.308;2023-07-16T06:57:35;94268.44;;;26.00;59.38
49393;BME280;35268;42.642;23.308;2023-07-16T07:00:00;94260.59;;;26.06;59.39
49393;BME280;35268;42.642;23.308;2023-07-16T07:02:26;94273.88;;;26.08;59.35
49393;BME280;35268;42.642;23.308;2023-07-16T07:04:51;94272.63;;;26.16;59.39
49393;BME280;35268;42.642;23.308;2023-07-16T07:07:16;94276.47;;;26.26;58.72
49393;BME280;35268;42.642;23.308;2023-07-16T07:09:42;94265.56;;;26.22;58.40
49393;BME280;35268;42.642;23.308;2023-07-16T07:12:08;94269.91;;;26.16;59.22
49393;BME280;35268;42.642;23.308;2023-07-16T07:14:33;94264.84;;;26.14;59.63
49393;BME280;35268;42.642;23.308;2023-07-16T07:16:59;94275.22;;;26.34;59.32
49393;BME280;35268;42.642;23.308;2023-07-16T07:19:24;94265.41;;;26.40;58.04
49393;BME280;35268;42.642;23.308;2023-07-16T07:21:50;94271.53;;;26.51;57.90
49393;BME280;35268;42.642;23.308;2023-07-16T07:24:15;94271.81;;;26.64;57.66
49393;BME280;35268;42.642;23.308;2023-07-16T07:26:41;94270.63;;;26.65;57.70
49393;BME280;35268;42.642;23.308;2023-07-16T07:29:06;94270.56;;;26.72;57.66
49393;BME280;35268;42.642;23.308;2023-07-16T07:31:31;94265.91;;;26.69;57.34
49393;BME280;35268;42.642;23.308;2023-07-16T07:33:57;94272.97;;;26.67;58.05
49393;BME280;35268;42.642;23.308;2023-07-16T07:36:23;94267.66;;;26.87;57.88
49393;BME280;35268;42.642;23.308;2023-07-16T07:38:49;94272.56;;;27.02;57.56
49393;BME280;35268;42.642;23.308;2023-07-16T07:41:14;94260.81;;;27.06;56.02
49393;BME280;35268;42.642;23.308;2023-07-16T07:43:40;94264.56;;;27.19;55.97
49393;BME280;35268;42.642;23.308;2023-07-16T07:46:05;94268.75;;;27.31;55.94
49393;BME280;35268;42.642;23.308;2023-07-16T07:48:31;94264.34;;;27.37;54.89
49393;BME280;35268;42.642;23.308;2023-07-16T07:50:57;94266.59;;;27.46;54.76
49393;BME280;35268;42.642;23.308;2023-07-16T07:53:22;94261.91;;;27.46;54.92
49393;BME280;35268;42.642;23.308;2023-07-16T07:55:48;94261.44;;;27.51;54.83
49393;BME280;35268;42.642;23.308;2023-07-16T07:58:13;94261.72;;;27.60;54.36
49393;BME280;35268;42.642;23.308;2023-07-16T08:00:38;94263.56;;;27.67;54.84
49393;BME280;35268;42.642;23.308;2023-07-16T08:03:04;94263.00;;;27.79;55.13
49393;BME280;35268;42.642;23.308;2023-07-16T08:05:29;94262.44;;;27.92;54.27
49393;BME280;35268;42.642;23.308;2023-07-16T08:07:55;94265.00;;;28.02;53.53
49393;BME280;35268;42.642;23.308;2023-07-16T08:10:21;94263.28;;;28.12;53.56
49393;BME280;35268;42.642;23.308;2023-07-16T08:12:47;94264.50;;;28.11;52.70
49393;BME280;35268;42.642;23.308;2023-07-16T08:15:12;94257.09;;;28.08;51.77
49393;BME280;35268;42.642;23.308;2023-07-16T08:17:43;94259.13;;;28.04;51.68
49393;BME280;35268;42.642;23.308;2023-07-16T08:20:09;94268.47;;;28.07;52.56
49393;BME280;35268;42.642;23.308;2023-07-16T08:22:34;94265.13;;;27.95;52.87
49393;BME280;35268;42.642;23.308;2023-07-16T08:25:00;94261.09;;;28.04;53.07
49393;BME280;35268;42.642;23.308;2023-07-16T08:27:25;94269.63;;;28.09;51.81
49393;BME280;35268;42.642;23.308;2023-07-16T08:29:51;94267.97;;;28.15;51.62
49393;BME280;35268;42.642;23.308;2023-07-16T08:32:16;94274.09;;;28.23;51.82
49393;BME280;35268;42.642;23.308;2023-07-16T08:34:42;94263.66;;;28.38;51.41
49393;BME280;35268;42.642;23.308;2023-07-16T08:37:07;94258.84;;;28.46;51.83
49393;BME280;35268;42.642;23.308;2023-07-16T08:39:33;94259.50;;;28.53;50.78
49393;BME280;35268;42.642;23.308;2023-07-16T08:41:59;94261.78;;;28.58;50.73
49393;BME280;35268;42.642;23.308;2023-07-16T08:44:24;94256.22;;;28.62;50.25
49393;BME280;35268;42.642;23.308;2023-07-16T08:46:50;94261.28;;;28.64;50.31
49393;BME280;35268;42.642;23.308;2023-07-16T08:49:18;94262.69;;;28.72;49.73
49393;BME280;35268;42.642;23.308;2023-07-16T08:51:46;94260.56;;;28.59;49.78
49393;BME280;35268;42.642;23.308;2023-07-16T08:54:12;94256.28;;;28.58;50.41
49393;BME280;35268;42.642;23.308;2023-07-16T08:56:41;94251.72;;;28.72;50.67
49393;BME280;35268;42.642;23.308;2023-07-16T08:59:07;94255.75;;;28.87;50.60
49393;BME280;35268;42.642;23.308;2023-07-16T09:01:33;94251.66;;;28.95;50.08
49393;BME280;35268;42.642;23.308;2023-07-16T09:03:59;94254.69;;;29.01;49.68
49393;BME280;35268;42.642;23.308;2023-07-16T09:06:25;94262.63;;;29.19;50.00
49393;BME280;35268;42.642;23.308;2023-07-16T09:08:51;94257.31;;;29.28;47.99
49393;BME280;35268;42.642;23.308;2023-07-16T09:11:16;94255.78;;;29.27;47.94
49393;BME280;35268;42.642;23.308;2023-07-16T09:13:46;94251.16;;;29.40;48.62
49393;BME280;35268;42.642;23.308;2023-07-16T09:16:12;94248.78;;;29.43;48.64
49393;BME280;35268;42.642;23.308;2023-07-16T09:18:40;94253.25;;;29.53;48.85
49393;BME280;35268;42.642;23.308;2023-07-16T09:21:05;94249.50;;;29.63;48.23
49393;BME280;35268;42.642;23.308;2023-07-16T09:23:32;94244.59;;;29.74;47.78
49393;BME280;35268;42.642;23.308;2023-07-16T09:25:58;94239.00;;;29.78;47.18
49393;BME280;35268;42.642;23.308;2023-07-16T09:28:23;94243.91;;;29.87;47.26
49393;BME280;35268;42.642;23.308;2023-07-16T09:30:50;94240.56;;;29.95;46.94
49393;BME280;35268;42.642;23.308;2023-07-16T09:33:22;94233.88;;;29.96;47.29
49393;BME280;35268;42.642;23.308;2023-07-16T09:35:51;94235.47;;;29.94;46.27
49393;BME280;35268;42.642;23.308;2023-07-16T09:38:17;94240.47;;;29.99;46.70
49393;BME280;35268;42.642;23.308;2023-07-16T09:40:44;94244.66;;;29.87;45.95
49393;BME280;35268;42.642;23.308;2023-07-16T09:43:10;94236.34;;;29.91;46.17
49393;BME280;35268;42.642;23.308;2023-07-16T09:45:36;94238.56;;;29.96;46.53
49393;BME280;35268;42.642;23.308;2023-07-16T09:48:03;94228.88;;;30.08;47.10
49393;BME280;35268;42.642;23.308;2023-07-16T09:50:29;94236.34;;;30.24;46.86
49393;BME280;35268;42.642;23.308;2023-07-16T09:52:57;94232.06;;;30.39;46.35
49393;BME280;35268;42.642;23.308;2023-07-16T09:55:24;94238.06;;;30.50;45.84
49393;BME280;35268;42.642;23.308;2023-07-16T09:57:52;94226.00;;;30.60;45.48
49393;BME280;35268;42.642;23.308;2023-07-16T10:00:19;94230.78;;;30.73;44.74
49393;BME280;35268;42.642;23.308;2023-07-16T10:02:46;94225.44;;;30.82;45.40
49393;BME280;35268;42.642;23.308;2023-07-16T10:05:17;94226.72;;;30.94;44.87
49393;BME280;35268;42.642;23.308;2023-07-16T10:07:43;94218.69;;;30.99;44.47
49393;BME280;35268;42.642;23.308;2023-07-16T10:10:14;94223.00;;;31.13;43.99
49393;BME280;35268;42.642;23.308;2023-07-16T10:12:43;94222.91;;;31.17;43.14
49393;BME280;35268;42.642;23.308;2023-07-16T10:15:27;94221.56;;;31.09;43.19
49393;BME280;35268;42.642;23.308;2023-07-16T10:17:53;94219.81;;;31.15;43.34
49393;BME280;35268;42.642;23.308;2023-07-16T10:20:31;94214.00;;;31.26;43.80
49393;BME280;35268;42.642;23.308;2023-07-16T10:22:57;94222.91;;;31.17;43.73
49393;BME280;35268;42.642;23.308;2023-07-16T10:25:25;94218.06;;;31.21;43.75
49393;BME280;35268;42.642;23.308;2023-07-16T10:27:53;94217.41;;;31.17;42.89
49393;BME280;35268;42.642;23.308;2023-07-16T10:30:19;94214.09;;;31.22;42.44
49393;BME280;35268;42.642;23.308;2023-07-16T10:32:45;94205.09;;;31.34;43.56
49393;BME280;35268;42.642;23.308;2023-07-16T10:35:11;94196.78;;;31.51;43.41
49393;BME280;35268;42.642;23.308;2023-07-16T10:37:38;94194.66;;;31.68;43.40
49393;BME280;35268;42.642;23.308;2023-07-16T10:40:04;94196.97;;;31.82;41.87
49393;BME280;35268;42.642;23.308;2023-07-16T10:42:31;94204.03;;;31.96;41.87
49393;BME280;35268;42.642;23.308;2023-07-16T10:45:01;94198.41;;;31.99;41.42
49393;BME280;35268;42.642;23.308;2023-07-16T10:47:34;94196.50;;;32.09;40.86
49393;BME280;35268;42.642;23.308;2023-07-16T10:50:02;94209.09;;;32.10;40.41
49393;BME280;35268;42.642;23.308;2023-07-16T10:52:28;94211.06;;;32.10;39.86
49393;BME280;35268;42.642;23.308;2023-07-16T10:54:54;94203.81;;;32.03;39.61
49393;BME280;35268;42.642;23.308;2023-07-16T10:57:22;94207.56;;;31.84;40.72
49393;BME280;35268;42.642;23.308;2023-07-16T10:59:48;94197.19;;;31.88;39.69
49393;BME280;35268;42.642;23.308;2023-07-16T11:02:15;94203.03;;;31.77;38.92
49393;BME280;35268;42.642;23.308;2023-07-16T11:04:42;94195.69;;;31.61;37.74
49393;BME280;35268;42.642;23.308;2023-07-16T11:07:09;94190.81;;;31.65;36.81
49393;BME280;35268;42.642;23.308;2023-07-16T11:09:43;94197.09;;;31.66;38.01
49393;BME280;35268;42.642;23.308;2023-07-16T11:12:13;94193.78;;;31.58;37.78
49393;BME280;35268;42.642;23.308;2023-07-16T11:14:46;94188.59;;;31.60;37.91
49393;BME280;35268;42.642;23.308;2023-07-16T11:17:13;94190.16;;;31.61;37.60
49393;BME280;35268;42.642;23.308;2023-07-16T11:19:39;94175.38;;;31.68;37.33
49393;BME280;35268;42.642;23.308;2023-07-16T11:22:07;94185.28;;;31.78;38.41
49393;BME280;35268;42.642;23.308;2023-07-16T11:24:38;94181.63;;;31.81;36.94
49393;BME280;35268;42.642;23.308;2023-07-16T11:27:04;94177.78;;;31.91;37.09
49393;BME280;35268;42.642;23.308;2023-07-16T11:29:35;94169.84;;;32.06;37.80
49393;BME280;35268;42.642;23.308;2023-07-16T11:32:01;94175.75;;;32.17;37.40
49393;BME280;35268;42.642;23.308;2023-07-16T11:34:27;94172.78;;;32.25;37.99
49393;BME280;35268;42.642;23.308;2023-07-16T11:36:53;94177.06;;;32.26;37.73
49393;BME280;35268;42.642;23.308;2023-07-16T11:39:18;94164.56;;;32.34;38.41
49393;BME280;35268;42.642;23.308;2023-07-16T11:41:57;94173.25;;;32.45;34.98
49393;BME280;35268;42.642;23.308;2023-07-16T11:44:22;94165.88;;;32.42;36.39
49393;BME280;35268;42.642;23.308;2023-07-16T11:46:48;94167.41;;;32.43;37.31
49393;BME280;35268;42.642;23.308;2023-07-16T11:49:13;94162.41;;;32.64;38.41
49393;BME280;35268;42.642;23.308;2023-07-16T11:51:39;94167.00;;;32.89;38.91
49393;BME280;35268;42.642;23.308;2023-07-16T11:54:04;94171.03;;;33.19;38.23
49393;BME280;35268;42.642;23.308;2023-07-16T11:56:30;94160.44;;;33.49;38.75
49393;BME280;35268;42.642;23.308;2023-07-16T11:58:55;94165.78;;;33.74;37.77
49393;BME280;35268;42.642;23.308;2023-07-16T12:01:21;94159.38;;;34.05;36.35
49393;BME280;35268;42.642;23.308;2023-07-16T12:03:46;94162.25;;;34.24;36.22
49393;BME280;35268;42.642;23.308;2023-07-16T12:06:11;94154.25;;;34.44;35.84
49393;BME280;35268;42.642;23.308;2023-07-16T12:08:37;94156.41;;;34.59;34.94
49393;BME280;35268;42.642;23.308;2023-07-16T12:11:02;94164.09;;;34.73;34.63
49393;BME280;35268;42.642;23.308;2023-07-16T12:13:28;94152.84;;;34.86;34.31
49393;BME280;35268;42.642;23.308;2023-07-16T12:15:53;94157.91;;;34.96;34.63
49393;BME280;35268;42.642;23.308;2023-07-16T12:18:19;94154.69;;;35.07;33.49
49393;BME280;35268;42.642;23.308;2023-07-16T12:20:44;94150.66;;;35.08;30.70
49393;BME280;35268;42.642;23.308;2023-07-16T12:23:10;94151.03;;;34.73;31.30
49393;BME280;35268;42.642;23.308;2023-07-16T12:25:35;94144.09;;;34.78;33.38
49393;BME280;35268;42.642;23.308;2023-07-16T12:28:01;94139.78;;;34.95;33.40
49393;BME280;35268;42.642;23.308;2023-07-16T12:30:27;94143.72;;;35.22;28.92
49393;BME280;35268;42.642;23.308;2023-07-16T12:32:52;94140.44;;;35.33;30.61
49393;BME280;35268;42.642;23.308;2023-07-16T12:35:18;94149.56;;;35.24;29.62
49393;BME280;35268;42.642;23.308;2023-07-16T12:37:43;94143.09;;;35.27;29.98
49393;BME280;35268;42.642;23.308;2023-07-16T12:40:09;94137.97;;;35.35;31.07
49393;BME280;35268;42.642;23.308;2023-07-16T12:42:34;94135.28;;;35.59;31.31
49393;BME280;35268;42.642;23.308;2023-07-16T12:45:01;94133.75;;;35.91;30.91
49393;BME280;35268;42.642;23.308;2023-07-16T12:47:26;94138.88;;;36.32;29.42
49393;BME280;35268;42.642;23.308;2023-07-16T12:49:52;94126.47;;;36.42;29.24
49393;BME280;35268;42.642;23.308;2023-07-16T12:52:17;94124.09;;;36.50;29.67